Time;durP1;ratioP1;P1;durP2;ratioP2;P2;SDS_P1;SDS_P2;PMS_P1;PMS_P2;Temp;Humidity;BMP_temperature;BMP_pressure;BME280_temperature;BME280_humidity;BME280_pressure;Samples;Min_cycle;Max_cycle;Signal;HPM_P1;HPM_P2
2023/07/19 00:01:36;;;;;;;0.30;0.30;;;;;;;;;;10112189;28;20220;-78
2023/07/19 00:06:37;;;;;;;0.35;0.35;;;;;;;;;;10061765;28;20319;-77
2023/07/19 00:11:39;;;;;;;0.50;0.50;;;;;;;;;;10090387;28;20220;-77
2023/07/19 00:16:40;;;;;;;0.38;0.38;;;;;;;;;;10081586;28;20220;-77
2023/07/19 00:21:41;;;;;;;1.20;0.40;;;;;;;;;;10076351;28;23212;-76
2023/07/19 00:26:45;;;;;;;0.40;0.40;;;;;;;;;;10103976;28;20278;-79
2023/07/19 00:31:46;;;;;;;0.40;0.40;;;;;;;;;;10096120;28;20224;-76
2023/07/19 00:36:47;;;;;;;0.30;0.30;;;;;;;;;;10063454;28;20310;-77
2023/07/19 00:41:49;;;;;;;0.90;0.50;;;;;;;;;;10097199;28;20220;-77
2023/07/19 00:46:50;;;;;;;0.30;0.30;;;;;;;;;;10074937;28;23701;-75
2023/07/19 00:51:51;;;;;;;0.40;0.40;;;;;;;;;;10095521;28;21286;-78
2023/07/19 00:56:52;;;;;;;0.45;0.40;;;;;;;;;;10082167;28;20234;-77
2023/07/19 01:01:53;;;;;;;1.27;0.50;;;;;;;;;;10084163;28;20416;-77
2023/07/19 01:06:55;;;;;;;1.05;0.30;;;;;;;;;;10094390;28;22057;-75
2023/07/19 01:11:56;;;;;;;0.30;0.30;;;;;;;;;;10090676;28;21505;-76
2023/07/19 01:16:57;;;;;;;0.30;0.30;;;;;;;;;;10075651;28;20219;-77
2023/07/19 01:21:59;;;;;;;0.55;0.30;;;;;;;;;;10093600;28;21825;-77
2023/07/19 01:27:00;;;;;;;0.40;0.40;;;;;;;;;;10071386;28;21785;-76
2023/07/19 01:32:01;;;;;;;1.52;0.47;;;;;;;;;;10107129;28;20220;-78
2023/07/19 01:37:03;;;;;;;2.65;0.50;;;;;;;;;;10111586;28;21269;-77
2023/07/19 01:42:04;;;;;;;0.40;0.40;;;;;;;;;;10089366;28;20215;-77
2023/07/19 01:47:05;;;;;;;1.00;0.40;;;;;;;;;;10132294;28;22259;-76
2023/07/19 01:52:06;;;;;;;1.40;0.40;;;;;;;;;;10091141;28;20831;-77
2023/07/19 01:57:08;;;;;;;1.27;0.75;;;;;;;;;;10108804;28;23496;-78
2023/07/19 02:02:09;;;;;;;1.45;0.30;;;;;;;;;;10078813;28;20247;-77
2023/07/19 02:07:10;;;;;;;1.77;0.30;;;;;;;;;;10100461;28;22299;-78
2023/07/19 02:12:11;;;;;;;0.45;0.45;;;;;;;;;;10112863;28;21269;-78
2023/07/19 02:17:13;;;;;;;1.00;0.55;;;;;;;;;;10097469;28;20224;-79
2023/07/19 02:22:17;;;;;;;1.55;0.40;;;;;;;;;;10090953;28;20229;-77
2023/07/19 02:27:18;;;;;;;0.30;0.30;;;;;;;;;;10078263;28;20228;-78
2023/07/19 02:32:20;;;;;;;0.25;0.25;;;;;;;;;;10080833;28;20224;-77
2023/07/19 02:37:21;;;;;;;0.47;0.47;;;;;;;;;;10079401;28;21413;-76
2023/07/19 02:42:22;;;;;;;0.43;0.43;;;;;;;;;;10077586;28;20228;-76
2023/07/19 02:47:24;;;;;;;0.30;0.30;;;;;;;;;;10103923;28;20717;-78
2023/07/19 02:52:25;;;;;;;0.50;0.50;;;;;;;;;;10109235;28;20224;-78
2023/07/19 02:57:26;;;;;;;0.40;0.40;;;;;;;;;;10103030;28;21864;-76
2023/07/19 03:02:27;;;;;;;1.50;0.40;;;;;;;;;;10114496;28;20350;-77
2023/07/19 03:07:29;;;;;;;0.55;0.40;;;;;;;;;;10100270;28;20587;-77
2023/07/19 03:12:30;;;;;;;1.13;0.40;;;;;;;;;;10108755;28;20223;-78
2023/07/19 03:17:31;;;;;;;2.47;0.50;;;;;;;;;;10078902;28;20224;-79
2023/07/19 03:22:32;;;;;;;0.50;0.50;;;;;;;;;;10092203;28;24164;-77
2023/07/19 03:27:34;;;;;;;1.17;0.50;;;;;;;;;;10094985;28;20220;-79
2023/07/19 03:32:35;;;;;;;0.40;0.40;;;;;;;;;;10080538;28;20248;-78
2023/07/19 03:37:37;;;;;;;0.35;0.35;;;;;;;;;;10086584;28;20275;-76
2023/07/19 03:42:38;;;;;;;1.17;0.80;;;;;;;;;;10081559;28;21475;-77
2023/07/19 03:47:39;;;;;;;0.60;0.52;;;;;;;;;;10060002;28;20216;-76
2023/07/19 03:52:43;;;;;;;0.60;0.60;;;;;;;;;;10081902;28;20227;-78
2023/07/19 03:57:47;;;;;;;0.47;0.47;;;;;;;;;;10082507;28;24107;-77
2023/07/19 04:02:48;;;;;;;0.50;0.50;;;;;;;;;;10087557;28;21839;-76
2023/07/19 04:07:51;;;;;;;3.22;0.55;;;;;;;;;;10093715;28;20532;-77
2023/07/19 04:12:53;;;;;;;0.50;0.50;;;;;;;;;;10094866;28;20215;-77
2023/07/19 04:17:55;;;;;;;6.05;0.50;;;;;;;;;;10098361;28;23369;-77
2023/07/19 04:22:57;;;;;;;0.40;0.40;;;;;;;;;;10100505;28;21358;-75
2023/07/19 04:27:58;;;;;;;0.40;0.40;;;;;;;;;;10056509;28;23198;-77
2023/07/19 04:32:59;;;;;;;0.50;0.50;;;;;;;;;;10115708;28;22441;-77
2023/07/19 04:38:00;;;;;;;1.65;0.40;;;;;;;;;;10099054;28;20232;-77
2023/07/19 04:43:02;;;;;;;1.95;0.88;;;;;;;;;;10071852;28;20216;-77
2023/07/19 04:48:04;;;;;;;0.57;0.57;;;;;;;;;;10110262;28;20224;-78
2023/07/19 04:53:05;;;;;;;0.40;0.40;;;;;;;;;;10104099;28;21426;-78
2023/07/19 04:58:07;;;;;;;0.50;0.50;;;;;;;;;;10098984;28;20373;-78
2023/07/19 05:03:10;;;;;;;0.60;0.57;;;;;;;;;;10093726;28;20314;-79
2023/07/19 05:08:12;;;;;;;0.82;0.82;;;;;;;;;;10068671;28;20793;-79
2023/07/19 05:13:14;;;;;;;2.47;0.60;;;;;;;;;;10097978;28;20236;-77
2023/07/19 05:18:15;;;;;;;0.60;0.60;;;;;;;;;;10102948;28;21460;-78
2023/07/19 05:23:16;;;;;;;2.47;0.50;;;;;;;;;;10092211;28;20971;-77
2023/07/19 05:28:20;;;;;;;0.60;0.60;;;;;;;;;;10083440;28;21296;-77
2023/07/19 05:33:21;;;;;;;2.35;0.73;;;;;;;;;;10105167;28;20942;-76
2023/07/19 05:38:22;;;;;;;2.17;0.60;;;;;;;;;;10093943;28;21233;-78
2023/07/19 05:43:23;;;;;;;0.70;0.70;;;;;;;;;;10101700;28;20224;-78
2023/07/19 05:48:24;;;;;;;0.77;0.47;;;;;;;;;;10079962;28;21143;-77
2023/07/19 05:53:26;;;;;;;1.55;0.43;;;;;;;;;;10077062;28;20222;-76
2023/07/19 05:58:28;;;;;;;1.95;0.60;;;;;;;;;;10092932;28;21027;-76
2023/07/19 06:03:29;;;;;;;2.78;0.57;;;;;;;;;;10095216;28;20344;-74
2023/07/19 06:08:31;;;;;;;1.40;0.70;;;;;;;;;;10077516;28;20346;-76
2023/07/19 06:13:32;;;;;;;1.88;0.88;;;;;;;;;;10055271;28;20990;-76
2023/07/19 06:18:33;;;;;;;0.50;0.50;;;;;;;;;;10095937;28;20684;-77
2023/07/19 06:23:34;;;;;;;0.98;0.50;;;;;;;;;;10073321;28;20346;-76
2023/07/19 06:28:36;;;;;;;2.28;0.50;;;;;;;;;;10093869;28;21557;-77
2023/07/19 06:33:37;;;;;;;0.95;0.60;;;;;;;;;;10087394;28;20685;-75
2023/07/19 06:38:38;;;;;;;1.17;0.70;;;;;;;;;;10094434;28;20212;-76
2023/07/19 06:43:40;;;;;;;0.50;0.50;;;;;;;;;;10091119;28;20251;-77
2023/07/19 06:48:41;;;;;;;1.55;0.60;;;;;;;;;;10064964;28;20910;-77
2023/07/19 06:53:42;;;;;;;0.73;0.50;;;;;;;;;;10092616;28;20224;-76
2023/07/19 06:58:43;;;;;;;0.52;0.52;;;;;;;;;;10086088;28;21190;-76
2023/07/19 07:03:45;;;;;;;0.40;0.40;;;;;;;;;;10086968;28;20213;-77
2023/07/19 07:08:46;;;;;;;1.02;0.40;;;;;;;;;;10072520;28;20367;-77
2023/07/19 07:13:47;;;;;;;0.70;0.45;;;;;;;;;;10066849;28;20221;-76
2023/07/19 07:18:48;;;;;;;1.58;0.40;;;;;;;;;;10045276;28;20596;-77
2023/07/19 07:23:49;;;;;;;0.40;0.40;;;;;;;;;;10044671;28;20221;-78
2023/07/19 07:28:51;;;;;;;0.28;0.28;;;;;;;;;;10104417;28;21115;-79
2023/07/19 07:33:52;;;;;;;0.40;0.40;;;;;;;;;;10087109;28;21349;-77
2023/07/19 07:38:53;;;;;;;0.80;0.60;;;;;;;;;;10059550;28;20220;-77
2023/07/19 07:43:54;;;;;;;0.30;0.30;;;;;;;;;;10081728;28;22215;-77
2023/07/19 07:48:59;;;;;;;0.52;0.50;;;;;;;;;;10088032;28;20251;-77
2023/07/19 07:54:00;;;;;;;0.60;0.40;;;;;;;;;;10113474;28;20313;-76
2023/07/19 07:59:02;;;;;;;2.33;0.50;;;;;;;;;;10087058;28;23098;-74
2023/07/19 08:04:06;;;;;;;0.70;0.40;;;;;;;;;;10105394;28;20784;-77
2023/07/19 08:09:07;;;;;;;0.40;0.40;;;;;;;;;;10089557;28;21138;-77
2023/07/19 08:14:08;;;;;;;0.43;0.43;;;;;;;;;;10078152;28;20813;-77
2023/07/19 08:19:09;;;;;;;0.60;0.60;;;;;;;;;;10104812;28;20266;-75
2023/07/19 08:24:11;;;;;;;0.40;0.40;;;;;;;;;;10095248;28;20725;-78
2023/07/19 08:29:12;;;;;;;0.77;0.43;;;;;;;;;;10092135;28;20216;-77
2023/07/19 08:34:13;;;;;;;0.40;0.40;;;;;;;;;;10097942;28;20225;-75
2023/07/19 08:39:14;;;;;;;0.50;0.50;;;;;;;;;;10104259;28;20804;-77
2023/07/19 08:44:15;;;;;;;0.40;0.40;;;;;;;;;;10096628;28;20546;-75
2023/07/19 08:49:18;;;;;;;0.47;0.47;;;;;;;;;;10095991;28;20592;-76
2023/07/19 08:54:19;;;;;;;1.08;0.75;;;;;;;;;;10088508;28;20224;-77
2023/07/19 08:59:20;;;;;;;0.60;0.52;;;;;;;;;;10101309;28;20256;-77
2023/07/19 09:04:22;;;;;;;0.43;0.43;;;;;;;;;;10080649;28;20226;-76
2023/07/19 09:09:23;;;;;;;0.80;0.80;;;;;;;;;;10082520;28;22309;-74
2023/07/19 09:14:37;;;;;;;1.75;0.70;;;;;;;;;;10099293;28;21332;-76
2023/07/19 09:19:41;;;;;;;0.95;0.50;;;;;;;;;;10075566;28;20231;-75
2023/07/19 09:25:01;;;;;;;4.13;0.60;;;;;;;;;;10080923;28;22455;-79
2023/07/19 09:30:03;;;;;;;0.77;0.47;;;;;;;;;;10090900;28;20227;-76
2023/07/19 09:35:05;;;;;;;0.50;0.50;;;;;;;;;;10110190;28;21788;-77
2023/07/19 09:40:06;;;;;;;4.88;0.50;;;;;;;;;;10087892;28;20275;-77
2023/07/19 09:45:08;;;;;;;1.30;0.50;;;;;;;;;;10096418;28;20216;-76
2023/07/19 09:50:09;;;;;;;0.50;0.50;;;;;;;;;;10100790;28;21571;-76
2023/07/19 09:55:11;;;;;;;0.60;0.60;;;;;;;;;;10105020;28;20227;-78
2023/07/19 10:00:12;;;;;;;0.60;0.60;;;;;;;;;;10088164;28;20220;-77
2023/07/19 10:05:14;;;;;;;4.68;0.68;;;;;;;;;;10107352;28;20222;-78
2023/07/19 10:10:15;;;;;;;0.60;0.60;;;;;;;;;;10079450;28;20734;-77
2023/07/19 10:15:18;;;;;;;0.50;0.50;;;;;;;;;;10109127;28;20211;-77
2023/07/19 10:20:22;;;;;;;2.30;0.60;;;;;;;;;;10111965;28;20219;-77
2023/07/19 10:25:24;;;;;;;0.68;0.60;;;;;;;;;;10099160;28;20208;-77
2023/07/19 10:30:44;;;;;;;1.08;0.40;;;;;;;;;;10090926;28;20223;-77
2023/07/19 10:35:45;;;;;;;0.35;0.35;;;;;;;;;;10085909;28;20216;-77
2023/07/19 10:40:53;;;;;;;0.38;0.38;;;;;;;;;;10093483;28;20219;-79
2023/07/19 10:45:54;;;;;;;0.50;0.50;;;;;;;;;;10094388;28;20228;-75
2023/07/19 10:50:56;;;;;;;0.63;0.40;;;;;;;;;;10101252;28;20220;-77
2023/07/19 10:56:02;;;;;;;0.68;0.32;;;;;;;;;;10087864;28;21042;-78
2023/07/19 11:01:04;;;;;;;0.30;0.30;;;;;;;;;;10085558;28;20220;-75
2023/07/19 11:06:08;;;;;;;0.50;0.50;;;;;;;;;;10133333;28;20597;-73
2023/07/19 11:11:13;;;;;;;0.40;0.40;;;;;;;;;;10111271;28;21386;-75
2023/07/19 11:16:16;;;;;;;1.00;0.30;;;;;;;;;;10129339;28;20370;-76
2023/07/19 11:21:24;;;;;;;1.75;0.57;;;;;;;;;;10097409;28;24023;-76
2023/07/19 11:26:26;;;;;;;2.40;0.43;;;;;;;;;;10102854;28;21413;-71
2023/07/19 11:31:28;;;;;;;1.67;0.30;;;;;;;;;;10107162;28;20232;-74
2023/07/19 11:36:29;;;;;;;0.30;0.30;;;;;;;;;;10085218;28;22893;-75
2023/07/19 11:41:31;;;;;;;0.65;0.50;;;;;;;;;;10094549;28;22296;-74
2023/07/19 11:46:32;;;;;;;1.85;0.40;;;;;;;;;;10110515;28;20232;-75
2023/07/19 11:51:33;;;;;;;1.85;0.40;;;;;;;;;;10112964;28;20226;-75
2023/07/19 11:56:35;;;;;;;0.40;0.40;;;;;;;;;;10089906;28;20333;-75
2023/07/19 12:01:36;;;;;;;0.50;0.50;;;;;;;;;;10091508;28;20208;-73
2023/07/19 12:06:37;;;;;;;3.10;0.50;;;;;;;;;;10088493;28;20995;-79
2023/07/19 12:11:40;;;;;;;2.28;0.50;;;;;;;;;;10083048;28;20224;-78
2023/07/19 12:16:41;;;;;;;0.60;0.50;;;;;;;;;;10120980;28;20455;-75
2023/07/19 12:21:43;;;;;;;0.43;0.43;;;;;;;;;;10142396;28;20222;-77
2023/07/19 12:26:44;;;;;;;0.75;0.60;;;;;;;;;;10137096;28;22192;-82
2023/07/19 12:31:45;;;;;;;0.40;0.40;;;;;;;;;;10098778;28;20351;-78
2023/07/19 12:36:49;;;;;;;0.50;0.50;;;;;;;;;;10114961;28;20216;-77
2023/07/19 12:41:52;;;;;;;0.50;0.50;;;;;;;;;;10126971;28;20220;-79
2023/07/19 12:46:53;;;;;;;0.40;0.40;;;;;;;;;;10125570;28;20251;-81
2023/07/19 12:51:54;;;;;;;0.30;0.30;;;;;;;;;;10123850;28;20350;-83
2023/07/19 12:56:56;;;;;;;0.82;0.35;;;;;;;;;;10122523;28;20220;-81
2023/07/19 13:01:57;;;;;;;0.47;0.47;;;;;;;;;;10118484;28;21071;-80
2023/07/19 13:06:58;;;;;;;2.75;0.40;;;;;;;;;;10147121;28;21464;-80
2023/07/19 13:11:59;;;;;;;0.38;0.38;;;;;;;;;;10136122;28;20235;-80
2023/07/19 13:17:00;;;;;;;0.43;0.43;;;;;;;;;;10194599;28;21330;-82
2023/07/19 13:22:01;;;;;;;0.82;0.47;;;;;;;;;;10134798;28;20657;-82
2023/07/19 13:27:04;;;;;;;0.30;0.30;;;;;;;;;;10123087;28;21419;-83
2023/07/19 13:32:06;;;;;;;0.30;0.30;;;;;;;;;;10168762;28;20277;-81
2023/07/19 13:37:07;;;;;;;0.30;0.30;;;;;;;;;;10164617;28;20505;-82
2023/07/19 13:42:08;;;;;;;1.95;0.40;;;;;;;;;;10118800;28;20409;-80
2023/07/19 13:47:09;;;;;;;0.68;0.30;;;;;;;;;;10153971;28;21589;-78
2023/07/19 13:52:10;;;;;;;1.75;0.30;;;;;;;;;;10116574;28;20719;-81
2023/07/19 13:57:11;;;;;;;0.88;0.50;;;;;;;;;;10171725;28;20862;-82
2023/07/19 14:02:12;;;;;;;0.40;0.40;;;;;;;;;;10165985;28;20227;-79
2023/07/19 14:07:13;;;;;;;0.38;0.38;;;;;;;;;;10184466;28;20259;-80
2023/07/19 14:12:14;;;;;;;1.27;0.47;;;;;;;;;;10186388;28;20219;-81
2023/07/19 14:17:15;;;;;;;0.40;0.40;;;;;;;;;;10176686;28;21894;-79
2023/07/19 14:22:16;;;;;;;1.45;0.40;;;;;;;;;;10135953;28;20417;-81
2023/07/19 14:27:17;;;;;;;0.40;0.40;;;;;;;;;;10151041;28;20779;-82
2023/07/19 14:32:19;;;;;;;0.40;0.40;;;;;;;;;;10151513;28;22989;-83
2023/07/19 14:37:20;;;;;;;0.47;0.47;;;;;;;;;;10128238;28;20440;-83
2023/07/19 14:42:21;;;;;;;2.83;0.40;;;;;;;;;;10119250;28;20301;-81
2023/07/19 14:47:23;;;;;;;0.40;0.40;;;;;;;;;;10111614;28;20618;-83
2023/07/19 14:52:24;;;;;;;0.40;0.40;;;;;;;;;;10103556;28;20316;-82
2023/07/19 14:57:25;;;;;;;0.50;0.50;;;;;;;;;;10101666;28;20231;-80
2023/07/19 15:02:26;;;;;;;1.77;0.50;;;;;;;;;;10101332;28;20242;-81
2023/07/19 15:07:28;;;;;;;0.43;0.40;;;;;;;;;;10089673;28;20351;-81
2023/07/19 15:12:29;;;;;;;1.40;0.60;;;;;;;;;;10098356;28;21000;-82
2023/07/19 15:17:30;;;;;;;3.80;0.55;;;;;;;;;;10088380;28;20836;-79
2023/07/19 15:22:32;;;;;;;0.70;0.70;;;;;;;;;;10112226;28;20208;-82
2023/07/19 15:27:36;;;;;;;0.68;0.40;;;;;;;;;;10121743;28;21561;-81
2023/07/19 15:32:38;;;;;;;0.50;0.50;;;;;;;;;;10118387;28;20216;-81
2023/07/19 15:37:39;;;;;;;0.95;0.40;;;;;;;;;;10110630;28;20341;-81
2023/07/19 15:42:40;;;;;;;1.40;0.50;;;;;;;;;;10132839;28;20482;-81
2023/07/19 15:47:41;;;;;;;0.50;0.50;;;;;;;;;;10117714;28;20220;-79
2023/07/19 15:52:43;;;;;;;0.55;0.50;;;;;;;;;;10113374;28;21361;-80
2023/07/19 15:57:44;;;;;;;1.15;0.60;;;;;;;;;;10109984;28;21950;-81
2023/07/19 16:02:45;;;;;;;1.55;0.40;;;;;;;;;;10126028;28;22764;-81
2023/07/19 16:07:46;;;;;;;1.17;0.38;;;;;;;;;;10111471;28;20380;-80
2023/07/19 16:12:55;;;;;;;1.40;0.47;;;;;;;;;;10214697;27;21061;-81
2023/07/19 16:17:56;;;;;;;0.60;0.60;;;;;;;;;;10189473;28;20617;-82
2023/07/19 16:22:57;;;;;;;0.63;0.50;;;;;;;;;;10164756;28;20257;-80
2023/07/19 16:27:58;;;;;;;1.77;0.43;;;;;;;;;;10189950;28;22734;-83
2023/07/19 16:32:59;;;;;;;0.38;0.38;;;;;;;;;;10159613;28;20618;-79
2023/07/19 16:38:00;;;;;;;0.60;0.30;;;;;;;;;;10177182;28;20742;-81
2023/07/19 16:43:01;;;;;;;0.88;0.35;;;;;;;;;;10176487;28;20230;-79
2023/07/19 16:48:02;;;;;;;1.10;0.75;;;;;;;;;;10175037;28;20377;-81
2023/07/19 16:53:12;;;;;;;1.15;0.40;;;;;;;;;;10196185;28;20310;-80
2023/07/19 16:58:13;;;;;;;0.50;0.50;;;;;;;;;;10191699;28;20393;-81
2023/07/19 17:03:15;;;;;;;0.35;0.35;;;;;;;;;;10183686;28;22049;-80
2023/07/19 17:08:17;;;;;;;0.30;0.30;;;;;;;;;;10192176;28;20243;-79
2023/07/19 17:13:18;;;;;;;3.97;0.50;;;;;;;;;;10188525;28;21618;-81
2023/07/19 17:18:19;;;;;;;0.40;0.40;;;;;;;;;;10193949;28;20223;-82
2023/07/19 17:23:20;;;;;;;0.40;0.40;;;;;;;;;;10163982;28;20260;-83
2023/07/19 17:28:21;;;;;;;0.30;0.30;;;;;;;;;;10137126;28;20421;-81
2023/07/19 17:33:22;;;;;;;0.90;0.30;;;;;;;;;;10173247;28;20234;-82
2023/07/19 17:38:23;;;;;;;0.43;0.40;;;;;;;;;;10161985;28;20231;-81
2023/07/19 17:43:25;;;;;;;0.52;0.52;;;;;;;;;;10154062;28;20234;-82
2023/07/19 17:48:26;;;;;;;1.85;0.68;;;;;;;;;;10145754;28;21014;-81
2023/07/19 17:53:27;;;;;;;0.40;0.40;;;;;;;;;;10152773;28;20254;-79
2023/07/19 17:58:28;;;;;;;0.40;0.40;;;;;;;;;;10151342;28;20324;-78
2023/07/19 18:03:30;;;;;;;0.40;0.40;;;;;;;;;;10129656;28;20227;-78
2023/07/19 18:08:31;;;;;;;0.50;0.50;;;;;;;;;;10177414;28;21215;-78
2023/07/19 18:13:33;;;;;;;0.65;0.65;;;;;;;;;;10156625;28;20215;-78
2023/07/19 18:18:34;;;;;;;0.80;0.80;;;;;;;;;;10188846;28;20226;-81
2023/07/19 18:23:37;;;;;;;1.05;0.75;;;;;;;;;;10167542;28;20219;-80
2023/07/19 18:28:38;;;;;;;0.85;0.80;;;;;;;;;;10162589;28;22634;-79
2023/07/19 18:33:39;;;;;;;2.45;0.90;;;;;;;;;;10145707;28;20222;-79
2023/07/19 18:38:40;;;;;;;0.90;0.90;;;;;;;;;;10158369;28;22156;-80
2023/07/19 18:43:41;;;;;;;0.80;0.80;;;;;;;;;;10148072;28;21019;-80
2023/07/19 18:48:43;;;;;;;0.88;0.88;;;;;;;;;;10140803;28;20231;-80
2023/07/19 18:53:47;;;;;;;0.70;0.57;;;;;;;;;;10141428;28;20226;-79
2023/07/19 18:58:49;;;;;;;1.20;0.82;;;;;;;;;;10166882;28;23180;-79
2023/07/19 19:03:50;;;;;;;0.65;0.57;;;;;;;;;;10166174;28;20345;-80
2023/07/19 19:08:51;;;;;;;0.60;0.60;;;;;;;;;;10198423;28;21317;-78
2023/07/19 19:13:52;;;;;;;0.70;0.70;;;;;;;;;;10161937;28;20223;-78
2023/07/19 19:18:53;;;;;;;0.75;0.70;;;;;;;;;;10170094;28;20368;-80
2023/07/19 19:23:54;;;;;;;1.60;0.57;;;;;;;;;;10168505;28;21197;-81
2023/07/19 19:28:55;;;;;;;0.55;0.55;;;;;;;;;;10199774;28;21363;-79
2023/07/19 19:33:56;;;;;;;2.65;0.60;;;;;;;;;;10173641;28;20251;-78
2023/07/19 19:38:58;;;;;;;0.47;0.47;;;;;;;;;;10178291;28;20235;-79
2023/07/19 19:43:59;;;;;;;0.43;0.43;;;;;;;;;;10167652;28;20220;-80
2023/07/19 19:49:01;;;;;;;0.47;0.47;;;;;;;;;;10158820;28;20251;-76
2023/07/19 19:54:02;;;;;;;0.35;0.35;;;;;;;;;;10160392;28;20215;-79
2023/07/19 19:59:03;;;;;;;0.52;0.47;;;;;;;;;;10179646;28;21468;-80
2023/07/19 20:04:05;;;;;;;0.88;0.70;;;;;;;;;;10179685;28;20235;-79
2023/07/19 20:09:06;;;;;;;0.60;0.60;;;;;;;;;;10158180;28;21083;-79
2023/07/19 20:14:08;;;;;;;0.70;0.70;;;;;;;;;;10198103;28;20223;-79
2023/07/19 20:19:09;;;;;;;0.60;0.60;;;;;;;;;;10179255;28;20616;-80
2023/07/19 20:24:13;;;;;;;0.40;0.40;;;;;;;;;;10186142;28;20216;-79
2023/07/19 20:29:14;;;;;;;0.80;0.80;;;;;;;;;;10164669;28;20227;-78
2023/07/19 20:34:15;;;;;;;0.65;0.65;;;;;;;;;;10171693;28;20409;-80
2023/07/19 20:39:16;;;;;;;0.70;0.70;;;;;;;;;;10160602;28;20219;-81
2023/07/19 20:44:17;;;;;;;2.40;0.55;;;;;;;;;;10185515;28;22239;-79
2023/07/19 20:49:18;;;;;;;1.20;1.02;;;;;;;;;;10131958;28;20358;-78
2023/07/19 20:54:19;;;;;;;0.88;0.88;;;;;;;;;;10146862;28;20216;-79
2023/07/19 20:59:21;;;;;;;0.93;0.80;;;;;;;;;;10123672;28;20246;-78
2023/07/19 21:04:22;;;;;;;1.00;1.00;;;;;;;;;;10135383;28;20238;-81
2023/07/19 21:09:23;;;;;;;0.88;0.88;;;;;;;;;;10121433;28;20235;-78
2023/07/19 21:14:24;;;;;;;1.13;0.80;;;;;;;;;;10110527;28;20871;-78
2023/07/19 21:19:25;;;;;;;2.38;0.57;;;;;;;;;;10135266;28;20313;-76
2023/07/19 21:24:26;;;;;;;0.68;0.68;;;;;;;;;;10136006;28;20255;-76
2023/07/19 21:29:27;;;;;;;0.70;0.70;;;;;;;;;;10133303;28;20242;-78
2023/07/19 21:34:28;;;;;;;0.77;0.70;;;;;;;;;;10134577;28;20248;-76
2023/07/19 21:39:29;;;;;;;0.85;0.85;;;;;;;;;;10129061;28;20216;-78
2023/07/19 21:44:30;;;;;;;0.60;0.60;;;;;;;;;;10136909;28;22480;-77
2023/07/19 21:49:31;;;;;;;0.77;0.75;;;;;;;;;;10127886;28;20228;-79
2023/07/19 21:54:32;;;;;;;0.70;0.70;;;;;;;;;;10115971;28;20319;-78
2023/07/19 21:59:33;;;;;;;0.55;0.55;;;;;;;;;;10117440;28;20315;-80
2023/07/19 22:04:34;;;;;;;0.70;0.70;;;;;;;;;;10120633;28;20224;-76
2023/07/19 22:09:40;;;;;;;0.98;0.90;;;;;;;;;;10127136;28;20598;-79
2023/07/19 22:14:41;;;;;;;2.53;0.80;;;;;;;;;;10119864;28;20215;-75
2023/07/19 22:19:42;;;;;;;0.60;0.60;;;;;;;;;;10127230;28;20223;-80
2023/07/19 22:24:43;;;;;;;2.85;0.93;;;;;;;;;;10124052;28;20472;-79
2023/07/19 22:29:44;;;;;;;1.10;0.70;;;;;;;;;;10118759;28;20225;-77
2023/07/19 22:34:45;;;;;;;0.55;0.55;;;;;;;;;;10119597;28;20258;-77
2023/07/19 22:39:46;;;;;;;0.50;0.50;;;;;;;;;;10119364;28;20243;-78
2023/07/19 22:44:47;;;;;;;0.90;0.90;;;;;;;;;;10124543;28;20221;-78
2023/07/19 22:49:48;;;;;;;0.65;0.65;;;;;;;;;;10105924;28;21286;-78
2023/07/19 22:54:49;;;;;;;0.60;0.60;;;;;;;;;;10106545;28;20228;-77
2023/07/19 22:59:51;;;;;;;1.50;0.82;;;;;;;;;;10105521;28;20897;-79
2023/07/19 23:04:52;;;;;;;1.15;0.68;;;;;;;;;;10112862;28;20696;-77
2023/07/19 23:09:53;;;;;;;4.78;0.65;;;;;;;;;;10116703;28;21594;-77
2023/07/19 23:14:54;;;;;;;0.80;0.80;;;;;;;;;;10118781;28;20225;-77
2023/07/19 23:19:55;;;;;;;0.75;0.75;;;;;;;;;;10115715;28;20221;-76
2023/07/19 23:24:56;;;;;;;0.60;0.60;;;;;;;;;;10120043;28;20966;-77
2023/07/19 23:29:57;;;;;;;0.47;0.47;;;;;;;;;;10122355;28;20238;-75
2023/07/19 23:34:58;;;;;;;2.83;0.80;;;;;;;;;;10107666;28;20731;-77
2023/07/19 23:39:59;;;;;;;2.65;0.57;;;;;;;;;;10100174;28;20220;-77
2023/07/19 23:45:00;;;;;;;3.60;0.63;;;;;;;;;;10110064;28;20235;-76
2023/07/19 23:50:02;;;;;;;2.05;0.52;;;;;;;;;;10108869;28;20236;-77
2023/07/19 23:55:04;;;;;;;0.50;0.50;;;;;;;;;;10109721;28;20446;-78
